sensor_id;sensor_type;location;lat;lon;timestamp;P1;durP1;ratioP1;P2;durP2;ratioP2
56122;SDS011;42426;46.104;19.656;2022-09-09T00:04:03;12.38;;;8.10;;
56122;SDS011;42426;46.104;19.656;2022-09-09T00:06:50;14.50;;;9.02;;
56122;SDS011;42426;46.104;19.656;2022-09-09T00:15:00;10.50;;;8.85;;
56122;SDS011;42426;46.104;19.656;2022-09-09T00:20:20;9.98;;;8.05;;
56122;SDS011;42426;46.104;19.656;2022-09-09T00:28:26;10.70;;;8.23;;
56122;SDS011;42426;46.104;19.656;2022-09-09T00:30:55;8.65;;;7.75;;
56122;SDS011;42426;46.104;19.656;2022-09-09T00:33:23;10.27;;;8.68;;
56122;SDS011;42426;46.104;19.656;2022-09-09T00:35:58;9.38;;;7.97;;
56122;SDS011;42426;46.104;19.656;2022-09-09T00:41:32;7.85;;;7.05;;
56122;SDS011;42426;46.104;19.656;2022-09-09T00:50:00;11.00;;;8.13;;
56122;SDS011;42426;46.104;19.656;2022-09-09T00:52:36;11.23;;;8.00;;
56122;SDS011;42426;46.104;19.656;2022-09-09T00:58:06;8.70;;;7.78;;
56122;SDS011;42426;46.104;19.656;2022-09-09T01:00:35;10.35;;;7.10;;
56122;SDS011;42426;46.104;19.656;2022-09-09T01:11:36;8.88;;;7.78;;
56122;SDS011;42426;46.104;19.656;2022-09-09T01:17:04;13.35;;;8.93;;
56122;SDS011;42426;46.104;19.656;2022-09-09T01:27:49;8.88;;;7.97;;
56122;SDS011;42426;46.104;19.656;2022-09-09T01:30:17;11.18;;;8.55;;
56122;SDS011;42426;46.104;19.656;2022-09-09T01:32:44;8.30;;;7.47;;
56122;SDS011;42426;46.104;19.656;2022-09-09T01:35:37;11.02;;;8.40;;
56122;SDS011;42426;46.104;19.656;2022-09-09T01:38:12;11.63;;;8.75;;
56122;SDS011;42426;46.104;19.656;2022-09-09T01:40:39;9.90;;;8.25;;
56122;SDS011;42426;46.104;19.656;2022-09-09T01:43:05;9.82;;;7.25;;
56122;SDS011;42426;46.104;19.656;2022-09-09T01:45:32;9.85;;;8.07;;
56122;SDS011;42426;46.104;19.656;2022-09-09T01:47:59;11.00;;;7.85;;
56122;SDS011;42426;46.104;19.656;2022-09-09T01:50:25;9.23;;;8.13;;
56122;SDS011;42426;46.104;19.656;2022-09-09T01:52:56;11.88;;;8.32;;
56122;SDS011;42426;46.104;19.656;2022-09-09T01:55:35;10.90;;;8.63;;
56122;SDS011;42426;46.104;19.656;2022-09-09T02:01:05;8.60;;;7.70;;
56122;SDS011;42426;46.104;19.656;2022-09-09T02:03:35;12.00;;;9.18;;
56122;SDS011;42426;46.104;19.656;2022-09-09T02:08:55;12.52;;;10.48;;
56122;SDS011;42426;46.104;19.656;2022-09-09T02:11:23;12.00;;;8.63;;
56122;SDS011;42426;46.104;19.656;2022-09-09T02:13:59;14.50;;;9.43;;
56122;SDS011;42426;46.104;19.656;2022-09-09T02:16:32;13.40;;;9.52;;
56122;SDS011;42426;46.104;19.656;2022-09-09T02:19:11;11.50;;;9.52;;
56122;SDS011;42426;46.104;19.656;2022-09-09T02:21:38;11.35;;;8.95;;
56122;SDS011;42426;46.104;19.656;2022-09-09T02:24:07;14.93;;;9.80;;
56122;SDS011;42426;46.104;19.656;2022-09-09T02:26:36;15.32;;;8.70;;
56122;SDS011;42426;46.104;19.656;2022-09-09T02:29:08;10.77;;;9.48;;
56122;SDS011;42426;46.104;19.656;2022-09-09T02:31:37;12.27;;;10.23;;
56122;SDS011;42426;46.104;19.656;2022-09-09T02:34:04;12.85;;;9.88;;
56122;SDS011;42426;46.104;19.656;2022-09-09T02:36:35;11.15;;;9.57;;
56122;SDS011;42426;46.104;19.656;2022-09-09T02:39:05;14.05;;;9.45;;
56122;SDS011;42426;46.104;19.656;2022-09-09T02:41:34;14.32;;;9.48;;
56122;SDS011;42426;46.104;19.656;2022-09-09T02:44:01;12.77;;;9.43;;
56122;SDS011;42426;46.104;19.656;2022-09-09T02:49:25;14.73;;;9.57;;
56122;SDS011;42426;46.104;19.656;2022-09-09T02:52:04;11.02;;;9.70;;
56122;SDS011;42426;46.104;19.656;2022-09-09T02:54:38;16.10;;;10.52;;
56122;SDS011;42426;46.104;19.656;2022-09-09T02:59:44;12.32;;;10.05;;
56122;SDS011;42426;46.104;19.656;2022-09-09T03:02:11;13.43;;;10.82;;
56122;SDS011;42426;46.104;19.656;2022-09-09T03:04:38;14.32;;;10.18;;
56122;SDS011;42426;46.104;19.656;2022-09-09T03:07:04;13.27;;;9.93;;
56122;SDS011;42426;46.104;19.656;2022-09-09T03:09:31;12.25;;;10.18;;
56122;SDS011;42426;46.104;19.656;2022-09-09T03:11:57;14.60;;;10.75;;
56122;SDS011;42426;46.104;19.656;2022-09-09T03:14:24;12.40;;;11.13;;
56122;SDS011;42426;46.104;19.656;2022-09-09T03:16:51;12.20;;;11.00;;
56122;SDS011;42426;46.104;19.656;2022-09-09T03:19:17;12.10;;;9.77;;
56122;SDS011;42426;46.104;19.656;2022-09-09T03:21:44;14.98;;;11.52;;
56122;SDS011;42426;46.104;19.656;2022-09-09T03:24:11;13.60;;;10.60;;
56122;SDS011;42426;46.104;19.656;2022-09-09T03:26:39;20.70;;;11.45;;
56122;SDS011;42426;46.104;19.656;2022-09-09T03:29:06;13.25;;;10.43;;
56122;SDS011;42426;46.104;19.656;2022-09-09T03:31:33;17.77;;;10.40;;
56122;SDS011;42426;46.104;19.656;2022-09-09T03:34:00;12.02;;;10.05;;
56122;SDS011;42426;46.104;19.656;2022-09-09T03:36:27;15.60;;;11.43;;
56122;SDS011;42426;46.104;19.656;2022-09-09T03:38:53;13.55;;;9.98;;
56122;SDS011;42426;46.104;19.656;2022-09-09T03:41:20;11.50;;;9.45;;
56122;SDS011;42426;46.104;19.656;2022-09-09T03:43:49;10.68;;;9.27;;
56122;SDS011;42426;46.104;19.656;2022-09-09T03:46:17;9.75;;;8.23;;
56122;SDS011;42426;46.104;19.656;2022-09-09T03:48:43;11.27;;;8.88;;
56122;SDS011;42426;46.104;19.656;2022-09-09T03:51:09;11.02;;;8.15;;
56122;SDS011;42426;46.104;19.656;2022-09-09T03:53:35;9.27;;;8.23;;
56122;SDS011;42426;46.104;19.656;2022-09-09T03:56:02;10.13;;;8.85;;
56122;SDS011;42426;46.104;19.656;2022-09-09T03:58:32;10.68;;;8.10;;
56122;SDS011;42426;46.104;19.656;2022-09-09T04:01:00;9.38;;;7.47;;
56122;SDS011;42426;46.104;19.656;2022-09-09T04:03:28;8.35;;;7.30;;
56122;SDS011;42426;46.104;19.656;2022-09-09T04:05:54;8.70;;;7.80;;
56122;SDS011;42426;46.104;19.656;2022-09-09T04:08:25;8.73;;;6.82;;
56122;SDS011;42426;46.104;19.656;2022-09-09T04:10:54;8.68;;;7.63;;
56122;SDS011;42426;46.104;19.656;2022-09-09T04:13:23;10.15;;;7.05;;
56122;SDS011;42426;46.104;19.656;2022-09-09T04:15:52;10.57;;;7.03;;
56122;SDS011;42426;46.104;19.656;2022-09-09T04:18:19;11.18;;;7.13;;
56122;SDS011;42426;46.104;19.656;2022-09-09T04:27:23;9.32;;;8.00;;
56122;SDS011;42426;46.104;19.656;2022-09-09T04:33:16;11.52;;;7.93;;
56122;SDS011;42426;46.104;19.656;2022-09-09T04:35:47;10.52;;;7.68;;
56122;SDS011;42426;46.104;19.656;2022-09-09T04:38:19;10.88;;;9.23;;
56122;SDS011;42426;46.104;19.656;2022-09-09T04:58:05;10.43;;;8.05;;
56122;SDS011;42426;46.104;19.656;2022-09-09T05:04:18;8.27;;;7.35;;
56122;SDS011;42426;46.104;19.656;2022-09-09T05:13:44;11.15;;;9.82;;
56122;SDS011;42426;46.104;19.656;2022-09-09T05:15:57;11.55;;;9.38;;
56122;SDS011;42426;46.104;19.656;2022-09-09T05:18:23;10.65;;;8.63;;
56122;SDS011;42426;46.104;19.656;2022-09-09T05:20:49;9.35;;;8.10;;
56122;SDS011;42426;46.104;19.656;2022-09-09T05:23:16;10.25;;;8.80;;
56122;SDS011;42426;46.104;19.656;2022-09-09T05:25:42;9.82;;;7.90;;
56122;SDS011;42426;46.104;19.656;2022-09-09T05:28:08;8.75;;;7.85;;
56122;SDS011;42426;46.104;19.656;2022-09-09T05:30:36;10.63;;;7.93;;
56122;SDS011;42426;46.104;19.656;2022-09-09T05:33:01;11.82;;;7.68;;
56122;SDS011;42426;46.104;19.656;2022-09-09T05:35:28;9.02;;;7.95;;
56122;SDS011;42426;46.104;19.656;2022-09-09T05:37:58;10.70;;;7.45;;
56122;SDS011;42426;46.104;19.656;2022-09-09T05:40:25;10.18;;;8.13;;
56122;SDS011;42426;46.104;19.656;2022-09-09T05:42:51;9.38;;;8.15;;
56122;SDS011;42426;46.104;19.656;2022-09-09T05:45:18;12.82;;;8.10;;
56122;SDS011;42426;46.104;19.656;2022-09-09T05:47:44;9.93;;;8.18;;
56122;SDS011;42426;46.104;19.656;2022-09-09T05:50:18;9.63;;;8.27;;
56122;SDS011;42426;46.104;19.656;2022-09-09T05:52:44;12.07;;;8.05;;
56122;SDS011;42426;46.104;19.656;2022-09-09T05:55:10;11.70;;;8.20;;
56122;SDS011;42426;46.104;19.656;2022-09-09T05:57:35;17.45;;;9.20;;
56122;SDS011;42426;46.104;19.656;2022-09-09T06:00:02;10.60;;;8.30;;
56122;SDS011;42426;46.104;19.656;2022-09-09T06:02:28;10.85;;;9.48;;
56122;SDS011;42426;46.104;19.656;2022-09-09T06:04:54;12.10;;;9.20;;
56122;SDS011;42426;46.104;19.656;2022-09-09T06:07:20;12.18;;;9.50;;
56122;SDS011;42426;46.104;19.656;2022-09-09T06:09:46;11.68;;;9.38;;
56122;SDS011;42426;46.104;19.656;2022-09-09T06:12:12;13.18;;;9.02;;
56122;SDS011;42426;46.104;19.656;2022-09-09T06:14:38;10.50;;;9.30;;
56122;SDS011;42426;46.104;19.656;2022-09-09T06:17:04;13.23;;;9.52;;
56122;SDS011;42426;46.104;19.656;2022-09-09T06:19:30;15.73;;;10.18;;
56122;SDS011;42426;46.104;19.656;2022-09-09T06:21:56;13.80;;;10.18;;
56122;SDS011;42426;46.104;19.656;2022-09-09T06:24:22;13.98;;;11.18;;
56122;SDS011;42426;46.104;19.656;2022-09-09T06:26:47;13.38;;;10.18;;
56122;SDS011;42426;46.104;19.656;2022-09-09T06:29:13;13.55;;;10.20;;
56122;SDS011;42426;46.104;19.656;2022-09-09T06:31:41;16.77;;;10.98;;
56122;SDS011;42426;46.104;19.656;2022-09-09T06:34:07;14.02;;;10.90;;
56122;SDS011;42426;46.104;19.656;2022-09-09T06:36:37;16.15;;;10.95;;
56122;SDS011;42426;46.104;19.656;2022-09-09T06:39:04;15.80;;;11.07;;
56122;SDS011;42426;46.104;19.656;2022-09-09T06:41:37;12.38;;;10.07;;
56122;SDS011;42426;46.104;19.656;2022-09-09T06:44:03;13.00;;;10.25;;
56122;SDS011;42426;46.104;19.656;2022-09-09T06:46:31;11.98;;;9.32;;
56122;SDS011;42426;46.104;19.656;2022-09-09T06:48:58;14.00;;;9.65;;
56122;SDS011;42426;46.104;19.656;2022-09-09T06:51:34;12.95;;;10.32;;
56122;SDS011;42426;46.104;19.656;2022-09-09T06:54:01;11.02;;;8.27;;
56122;SDS011;42426;46.104;19.656;2022-09-09T06:56:29;12.20;;;9.35;;
56122;SDS011;42426;46.104;19.656;2022-09-09T06:59:05;17.20;;;10.02;;
56122;SDS011;42426;46.104;19.656;2022-09-09T07:01:34;14.82;;;9.60;;
56122;SDS011;42426;46.104;19.656;2022-09-09T07:04:01;12.05;;;9.05;;
56122;SDS011;42426;46.104;19.656;2022-09-09T07:06:36;14.52;;;10.45;;
56122;SDS011;42426;46.104;19.656;2022-09-09T07:09:04;12.70;;;10.43;;
56122;SDS011;42426;46.104;19.656;2022-09-09T07:11:40;11.40;;;9.93;;
56122;SDS011;42426;46.104;19.656;2022-09-09T07:14:08;10.65;;;9.02;;
56122;SDS011;42426;46.104;19.656;2022-09-09T07:16:40;12.70;;;10.10;;
56122;SDS011;42426;46.104;19.656;2022-09-09T07:19:06;10.52;;;9.02;;
56122;SDS011;42426;46.104;19.656;2022-09-09T07:21:33;12.02;;;9.50;;
56122;SDS011;42426;46.104;19.656;2022-09-09T07:23:59;11.52;;;8.98;;
56122;SDS011;42426;46.104;19.656;2022-09-09T07:26:28;11.70;;;8.52;;
56122;SDS011;42426;46.104;19.656;2022-09-09T07:28:55;10.45;;;8.18;;
56122;SDS011;42426;46.104;19.656;2022-09-09T07:31:27;10.60;;;8.50;;
56122;SDS011;42426;46.104;19.656;2022-09-09T07:33:57;12.15;;;9.65;;
56122;SDS011;42426;46.104;19.656;2022-09-09T07:36:30;11.57;;;10.05;;
56122;SDS011;42426;46.104;19.656;2022-09-09T07:39:02;13.18;;;9.60;;
56122;SDS011;42426;46.104;19.656;2022-09-09T07:41:36;12.05;;;9.20;;
56122;SDS011;42426;46.104;19.656;2022-09-09T07:44:07;9.88;;;8.35;;
56122;SDS011;42426;46.104;19.656;2022-09-09T07:46:36;11.30;;;8.95;;
56122;SDS011;42426;46.104;19.656;2022-09-09T07:49:07;9.30;;;8.32;;
56122;SDS011;42426;46.104;19.656;2022-09-09T07:51:36;9.15;;;7.18;;
56122;SDS011;42426;46.104;19.656;2022-09-09T07:54:06;9.55;;;6.47;;
56122;SDS011;42426;46.104;19.656;2022-09-09T07:56:34;6.68;;;5.90;;
56122;SDS011;42426;46.104;19.656;2022-09-09T07:59:01;8.25;;;7.00;;
56122;SDS011;42426;46.104;19.656;2022-09-09T08:01:30;8.10;;;6.75;;
56122;SDS011;42426;46.104;19.656;2022-09-09T08:04:15;7.57;;;6.18;;
56122;SDS011;42426;46.104;19.656;2022-09-09T08:06:47;6.50;;;5.50;;
56122;SDS011;42426;46.104;19.656;2022-09-09T08:09:15;6.65;;;5.47;;
56122;SDS011;42426;46.104;19.656;2022-09-09T08:11:42;8.60;;;5.70;;
56122;SDS011;42426;46.104;19.656;2022-09-09T08:14:09;7.20;;;6.20;;
56122;SDS011;42426;46.104;19.656;2022-09-09T08:16:37;11.05;;;5.75;;
56122;SDS011;42426;46.104;19.656;2022-09-09T08:19:07;6.35;;;5.53;;
56122;SDS011;42426;46.104;19.656;2022-09-09T08:21:36;6.40;;;4.80;;
56122;SDS011;42426;46.104;19.656;2022-09-09T08:24:05;6.95;;;4.80;;
56122;SDS011;42426;46.104;19.656;2022-09-09T08:26:37;4.47;;;4.07;;
56122;SDS011;42426;46.104;19.656;2022-09-09T08:29:05;6.47;;;4.43;;
56122;SDS011;42426;46.104;19.656;2022-09-09T08:31:35;8.15;;;4.57;;
56122;SDS011;42426;46.104;19.656;2022-09-09T08:34:03;4.88;;;4.38;;
56122;SDS011;42426;46.104;19.656;2022-09-09T08:36:34;5.82;;;4.55;;
56122;SDS011;42426;46.104;19.656;2022-09-09T08:39:04;6.18;;;4.13;;
56122;SDS011;42426;46.104;19.656;2022-09-09T08:41:35;6.45;;;4.22;;
56122;SDS011;42426;46.104;19.656;2022-09-09T08:58:28;5.10;;;3.95;;
56122;SDS011;42426;46.104;19.656;2022-09-09T09:09:01;5.93;;;5.18;;
56122;SDS011;42426;46.104;19.656;2022-09-09T09:11:38;6.80;;;5.22;;
56122;SDS011;42426;46.104;19.656;2022-09-09T09:14:20;8.88;;;5.60;;
56122;SDS011;42426;46.104;19.656;2022-09-09T09:16:51;12.65;;;4.05;;
56122;SDS011;42426;46.104;19.656;2022-09-09T09:19:20;8.43;;;4.80;;
56122;SDS011;42426;46.104;19.656;2022-09-09T09:21:59;5.63;;;4.78;;
56122;SDS011;42426;46.104;19.656;2022-09-09T09:29:53;6.63;;;4.32;;
56122;SDS011;42426;46.104;19.656;2022-09-09T09:32:22;10.10;;;4.82;;
56122;SDS011;42426;46.104;19.656;2022-09-09T09:34:55;6.38;;;4.85;;
56122;SDS011;42426;46.104;19.656;2022-09-09T09:37:28;5.82;;;5.13;;
56122;SDS011;42426;46.104;19.656;2022-09-09T09:40:07;5.95;;;4.20;;
56122;SDS011;42426;46.104;19.656;2022-09-09T09:42:34;9.52;;;4.88;;
56122;SDS011;42426;46.104;19.656;2022-09-09T09:45:25;8.40;;;5.40;;
56122;SDS011;42426;46.104;19.656;2022-09-09T09:50:24;7.45;;;5.18;;
56122;SDS011;42426;46.104;19.656;2022-09-09T09:52:54;6.35;;;4.30;;
56122;SDS011;42426;46.104;19.656;2022-09-09T09:55:30;5.10;;;4.53;;
56122;SDS011;42426;46.104;19.656;2022-09-09T09:58:03;7.30;;;4.80;;
56122;SDS011;42426;46.104;19.656;2022-09-09T10:00:30;6.60;;;4.85;;
56122;SDS011;42426;46.104;19.656;2022-09-09T10:02:57;7.40;;;4.22;;
56122;SDS011;42426;46.104;19.656;2022-09-09T10:05:26;6.05;;;4.45;;
56122;SDS011;42426;46.104;19.656;2022-09-09T10:08:01;7.15;;;4.80;;
56122;SDS011;42426;46.104;19.656;2022-09-09T10:10:40;7.15;;;4.57;;
56122;SDS011;42426;46.104;19.656;2022-09-09T10:18:58;5.20;;;4.70;;
56122;SDS011;42426;46.104;19.656;2022-09-09T10:27:18;6.53;;;4.20;;
56122;SDS011;42426;46.104;19.656;2022-09-09T10:30:09;7.10;;;5.00;;
56122;SDS011;42426;46.104;19.656;2022-09-09T10:35:17;7.03;;;4.10;;
56122;SDS011;42426;46.104;19.656;2022-09-09T10:45:50;4.70;;;4.20;;
56122;SDS011;42426;46.104;19.656;2022-09-09T10:56:38;4.68;;;3.63;;
56122;SDS011;42426;46.104;19.656;2022-09-09T10:59:14;6.32;;;3.70;;
56122;SDS011;42426;46.104;19.656;2022-09-09T11:01:50;5.15;;;4.15;;
56122;SDS011;42426;46.104;19.656;2022-09-09T11:04:54;6.07;;;3.83;;
56122;SDS011;42426;46.104;19.656;2022-09-09T11:07:56;4.20;;;3.63;;
56122;SDS011;42426;46.104;19.656;2022-09-09T11:13:09;3.15;;;2.92;;
56122;SDS011;42426;46.104;19.656;2022-09-09T11:15:49;4.72;;;3.28;;
56122;SDS011;42426;46.104;19.656;2022-09-09T11:18:19;3.40;;;3.10;;
56122;SDS011;42426;46.104;19.656;2022-09-09T11:20:51;3.40;;;2.90;;
56122;SDS011;42426;46.104;19.656;2022-09-09T11:23:24;4.18;;;3.78;;
56122;SDS011;42426;46.104;19.656;2022-09-09T11:26:05;6.07;;;3.13;;
56122;SDS011;42426;46.104;19.656;2022-09-09T11:37:22;3.17;;;2.88;;
56122;SDS011;42426;46.104;19.656;2022-09-09T11:40:24;4.18;;;2.97;;
56122;SDS011;42426;46.104;19.656;2022-09-09T11:45:39;4.07;;;2.90;;
56122;SDS011;42426;46.104;19.656;2022-09-09T11:50:58;2.53;;;2.33;;
56122;SDS011;42426;46.104;19.656;2022-09-09T11:53:46;2.53;;;2.20;;
56122;SDS011;42426;46.104;19.656;2022-09-09T12:06:46;3.55;;;2.20;;
56122;SDS011;42426;46.104;19.656;2022-09-09T12:17:29;2.40;;;2.20;;
56122;SDS011;42426;46.104;19.656;2022-09-09T12:20:11;2.58;;;2.38;;
56122;SDS011;42426;46.104;19.656;2022-09-09T12:33:37;3.72;;;2.50;;
56122;SDS011;42426;46.104;19.656;2022-09-09T12:36:11;4.15;;;2.92;;
56122;SDS011;42426;46.104;19.656;2022-09-09T12:41:24;7.47;;;3.42;;
56122;SDS011;42426;46.104;19.656;2022-09-09T12:44:02;2.63;;;2.40;;
56122;SDS011;42426;46.104;19.656;2022-09-09T12:46:40;2.83;;;2.63;;
56122;SDS011;42426;46.104;19.656;2022-09-09T12:52:00;2.67;;;2.47;;
56122;SDS011;42426;46.104;19.656;2022-09-09T12:54:33;4.22;;;3.00;;
56122;SDS011;42426;46.104;19.656;2022-09-09T12:57:00;3.53;;;2.67;;
56122;SDS011;42426;46.104;19.656;2022-09-09T12:59:35;2.70;;;2.50;;
56122;SDS011;42426;46.104;19.656;2022-09-09T13:02:11;4.82;;;2.80;;
56122;SDS011;42426;46.104;19.656;2022-09-09T13:04:38;2.70;;;2.50;;
56122;SDS011;42426;46.104;19.656;2022-09-09T13:07:16;3.63;;;2.47;;
56122;SDS011;42426;46.104;19.656;2022-09-09T13:09:44;2.75;;;2.55;;
56122;SDS011;42426;46.104;19.656;2022-09-09T13:12:15;3.42;;;2.22;;
56122;SDS011;42426;46.104;19.656;2022-09-09T13:14:43;3.40;;;3.10;;
56122;SDS011;42426;46.104;19.656;2022-09-09T13:17:28;3.47;;;2.80;;
56122;SDS011;42426;46.104;19.656;2022-09-09T13:19:55;5.47;;;2.58;;
56122;SDS011;42426;46.104;19.656;2022-09-09T13:25:17;5.22;;;2.72;;
56122;SDS011;42426;46.104;19.656;2022-09-09T13:30:33;3.22;;;2.47;;
56122;SDS011;42426;46.104;19.656;2022-09-09T13:33:17;4.05;;;2.78;;
56122;SDS011;42426;46.104;19.656;2022-09-09T13:35:52;3.58;;;2.67;;
56122;SDS011;42426;46.104;19.656;2022-09-09T13:38:21;3.17;;;2.72;;
56122;SDS011;42426;46.104;19.656;2022-09-09T13:43:22;4.97;;;2.92;;
56122;SDS011;42426;46.104;19.656;2022-09-09T13:45:55;5.72;;;2.60;;
56122;SDS011;42426;46.104;19.656;2022-09-09T13:48:38;6.47;;;2.75;;
56122;SDS011;42426;46.104;19.656;2022-09-09T13:51:22;2.80;;;2.60;;
56122;SDS011;42426;46.104;19.656;2022-09-09T13:53:53;3.58;;;3.13;;
56122;SDS011;42426;46.104;19.656;2022-09-09T13:56:24;3.35;;;2.42;;
56122;SDS011;42426;46.104;19.656;2022-09-09T13:58:50;3.63;;;2.70;;
56122;SDS011;42426;46.104;19.656;2022-09-09T14:01:16;3.17;;;2.90;;
56122;SDS011;42426;46.104;19.656;2022-09-09T14:03:46;2.78;;;2.58;;
56122;SDS011;42426;46.104;19.656;2022-09-09T14:06:12;2.60;;;2.40;;
56122;SDS011;42426;46.104;19.656;2022-09-09T14:08:38;2.53;;;2.33;;
56122;SDS011;42426;46.104;19.656;2022-09-09T14:11:08;4.25;;;2.60;;
56122;SDS011;42426;46.104;19.656;2022-09-09T14:13:36;4.68;;;2.65;;
56122;SDS011;42426;46.104;19.656;2022-09-09T14:16:05;6.28;;;3.00;;
56122;SDS011;42426;46.104;19.656;2022-09-09T14:18:37;3.78;;;2.88;;
56122;SDS011;42426;46.104;19.656;2022-09-09T14:21:03;5.57;;;2.53;;
56122;SDS011;42426;46.104;19.656;2022-09-09T14:23:30;3.50;;;2.55;;
56122;SDS011;42426;46.104;19.656;2022-09-09T14:25:58;4.00;;;3.15;;
56122;SDS011;42426;46.104;19.656;2022-09-09T14:28:24;4.70;;;2.85;;
56122;SDS011;42426;46.104;19.656;2022-09-09T14:30:50;3.00;;;2.70;;
56122;SDS011;42426;46.104;19.656;2022-09-09T14:33:16;3.33;;;3.00;;
56122;SDS011;42426;46.104;19.656;2022-09-09T14:35:43;6.55;;;2.53;;
56122;SDS011;42426;46.104;19.656;2022-09-09T14:38:09;4.07;;;2.80;;
56122;SDS011;42426;46.104;19.656;2022-09-09T14:40:36;3.00;;;2.70;;
56122;SDS011;42426;46.104;19.656;2022-09-09T14:43:02;3.95;;;2.90;;
56122;SDS011;42426;46.104;19.656;2022-09-09T14:45:28;4.82;;;3.40;;
56122;SDS011;42426;46.104;19.656;2022-09-09T14:47:55;4.65;;;3.28;;
56122;SDS011;42426;46.104;19.656;2022-09-09T14:50:21;5.05;;;3.00;;
56122;SDS011;42426;46.104;19.656;2022-09-09T14:52:48;5.03;;;2.90;;
56122;SDS011;42426;46.104;19.656;2022-09-09T14:55:15;5.50;;;3.10;;
56122;SDS011;42426;46.104;19.656;2022-09-09T14:57:41;4.15;;;2.70;;
56122;SDS011;42426;46.104;19.656;2022-09-09T15:00:08;7.43;;;3.28;;
56122;SDS011;42426;46.104;19.656;2022-09-09T15:02:36;5.28;;;3.22;;
56122;SDS011;42426;46.104;19.656;2022-09-09T15:05:03;7.18;;;3.00;;
56122;SDS011;42426;46.104;19.656;2022-09-09T15:07:29;3.25;;;2.63;;
56122;SDS011;42426;46.104;19.656;2022-09-09T15:09:57;3.42;;;2.90;;
56122;SDS011;42426;46.104;19.656;2022-09-09T15:12:23;5.10;;;3.20;;
56122;SDS011;42426;46.104;19.656;2022-09-09T15:14:49;5.45;;;2.67;;
56122;SDS011;42426;46.104;19.656;2022-09-09T15:17:20;7.13;;;2.95;;
56122;SDS011;42426;46.104;19.656;2022-09-09T15:19:46;5.03;;;2.90;;
56122;SDS011;42426;46.104;19.656;2022-09-09T15:22:15;4.82;;;2.75;;
56122;SDS011;42426;46.104;19.656;2022-09-09T15:24:41;5.18;;;2.90;;
56122;SDS011;42426;46.104;19.656;2022-09-09T15:27:07;3.85;;;2.95;;
56122;SDS011;42426;46.104;19.656;2022-09-09T15:29:33;6.07;;;3.03;;
56122;SDS011;42426;46.104;19.656;2022-09-09T15:31:59;5.47;;;3.25;;
56122;SDS011;42426;46.104;19.656;2022-09-09T15:34:25;4.47;;;3.00;;
56122;SDS011;42426;46.104;19.656;2022-09-09T15:36:51;5.03;;;3.00;;
56122;SDS011;42426;46.104;19.656;2022-09-09T15:39:20;23.77;;;4.43;;
56122;SDS011;42426;46.104;19.656;2022-09-09T15:41:47;6.07;;;3.10;;
56122;SDS011;42426;46.104;19.656;2022-09-09T15:44:14;5.18;;;3.65;;
56122;SDS011;42426;46.104;19.656;2022-09-09T15:46:44;6.55;;;3.47;;
56122;SDS011;42426;46.104;19.656;2022-09-09T15:49:14;10.35;;;3.22;;
56122;SDS011;42426;46.104;19.656;2022-09-09T15:51:43;9.57;;;3.58;;
56122;SDS011;42426;46.104;19.656;2022-09-09T15:54:14;6.68;;;3.08;;
56122;SDS011;42426;46.104;19.656;2022-09-09T15:56:41;10.82;;;3.70;;
56122;SDS011;42426;46.104;19.656;2022-09-09T15:59:07;8.18;;;3.75;;
56122;SDS011;42426;46.104;19.656;2022-09-09T16:01:34;5.63;;;3.60;;
56122;SDS011;42426;46.104;19.656;2022-09-09T16:04:00;9.70;;;3.53;;
56122;SDS011;42426;46.104;19.656;2022-09-09T16:06:27;7.00;;;3.35;;
56122;SDS011;42426;46.104;19.656;2022-09-09T16:09:03;8.07;;;3.35;;
56122;SDS011;42426;46.104;19.656;2022-09-09T16:11:34;8.10;;;3.33;;
56122;SDS011;42426;46.104;19.656;2022-09-09T16:14:00;4.15;;;3.00;;
56122;SDS011;42426;46.104;19.656;2022-09-09T16:16:28;6.28;;;3.28;;
56122;SDS011;42426;46.104;19.656;2022-09-09T16:18:57;4.07;;;3.08;;
56122;SDS011;42426;46.104;19.656;2022-09-09T16:23:50;7.43;;;4.15;;
56122;SDS011;42426;46.104;19.656;2022-09-09T16:26:16;8.30;;;2.90;;
56122;SDS011;42426;46.104;19.656;2022-09-09T16:28:43;7.82;;;3.72;;
56122;SDS011;42426;46.104;19.656;2022-09-09T16:31:12;9.05;;;4.10;;
56122;SDS011;42426;46.104;19.656;2022-09-09T16:33:41;14.18;;;3.63;;
56122;SDS011;42426;46.104;19.656;2022-09-09T16:36:08;6.88;;;3.40;;
56122;SDS011;42426;46.104;19.656;2022-09-09T16:38:35;10.38;;;3.60;;
56122;SDS011;42426;46.104;19.656;2022-09-09T16:41:02;15.85;;;4.63;;
56122;SDS011;42426;46.104;19.656;2022-09-09T16:43:30;10.32;;;4.00;;
56122;SDS011;42426;46.104;19.656;2022-09-09T16:45:56;14.80;;;5.03;;
56122;SDS011;42426;46.104;19.656;2022-09-09T16:48:22;15.40;;;4.30;;
56122;SDS011;42426;46.104;19.656;2022-09-09T16:50:48;14.90;;;4.50;;
56122;SDS011;42426;46.104;19.656;2022-09-09T16:53:15;8.90;;;3.60;;
56122;SDS011;42426;46.104;19.656;2022-09-09T16:55:41;11.30;;;3.50;;
56122;SDS011;42426;46.104;19.656;2022-09-09T16:58:07;13.60;;;4.35;;
56122;SDS011;42426;46.104;19.656;2022-09-09T17:00:35;11.05;;;3.50;;
56122;SDS011;42426;46.104;19.656;2022-09-09T17:03:02;6.07;;;3.65;;
56122;SDS011;42426;46.104;19.656;2022-09-09T17:05:28;9.15;;;3.38;;
56122;SDS011;42426;46.104;19.656;2022-09-09T17:07:57;9.48;;;3.40;;
56122;SDS011;42426;46.104;19.656;2022-09-09T17:10:26;7.38;;;3.58;;
56122;SDS011;42426;46.104;19.656;2022-09-09T17:12:52;9.63;;;3.60;;
56122;SDS011;42426;46.104;19.656;2022-09-09T17:15:18;20.60;;;4.78;;
56122;SDS011;42426;46.104;19.656;2022-09-09T17:17:46;11.63;;;3.97;;
56122;SDS011;42426;46.104;19.656;2022-09-09T17:20:14;7.75;;;4.10;;
56122;SDS011;42426;46.104;19.656;2022-09-09T17:22:41;8.07;;;3.65;;
56122;SDS011;42426;46.104;19.656;2022-09-09T17:25:10;10.55;;;4.03;;
56122;SDS011;42426;46.104;19.656;2022-09-09T17:27:36;8.45;;;5.03;;
56122;SDS011;42426;46.104;19.656;2022-09-09T17:30:03;7.65;;;4.10;;
56122;SDS011;42426;46.104;19.656;2022-09-09T17:32:30;13.82;;;4.68;;
56122;SDS011;42426;46.104;19.656;2022-09-09T17:34:55;6.78;;;3.90;;
56122;SDS011;42426;46.104;19.656;2022-09-09T17:37:21;8.38;;;4.10;;
56122;SDS011;42426;46.104;19.656;2022-09-09T17:39:47;7.78;;;4.50;;
56122;SDS011;42426;46.104;19.656;2022-09-09T17:42:13;16.50;;;4.88;;
56122;SDS011;42426;46.104;19.656;2022-09-09T17:44:39;12.70;;;4.75;;
56122;SDS011;42426;46.104;19.656;2022-09-09T17:47:06;9.73;;;4.55;;
56122;SDS011;42426;46.104;19.656;2022-09-09T17:49:32;11.73;;;5.65;;
56122;SDS011;42426;46.104;19.656;2022-09-09T17:51:58;8.98;;;5.65;;
56122;SDS011;42426;46.104;19.656;2022-09-09T17:54:25;10.90;;;6.07;;
56122;SDS011;42426;46.104;19.656;2022-09-09T17:56:55;18.67;;;5.82;;
56122;SDS011;42426;46.104;19.656;2022-09-09T17:59:23;15.15;;;6.50;;
56122;SDS011;42426;46.104;19.656;2022-09-09T18:01:50;10.43;;;5.75;;
56122;SDS011;42426;46.104;19.656;2022-09-09T18:04:17;12.13;;;5.75;;
56122;SDS011;42426;46.104;19.656;2022-09-09T18:06:45;11.63;;;5.50;;
56122;SDS011;42426;46.104;19.656;2022-09-09T18:09:14;15.50;;;5.80;;
56122;SDS011;42426;46.104;19.656;2022-09-09T18:11:47;16.00;;;5.43;;
56122;SDS011;42426;46.104;19.656;2022-09-09T18:14:16;11.27;;;5.03;;
56122;SDS011;42426;46.104;19.656;2022-09-09T18:16:49;10.43;;;5.15;;
56122;SDS011;42426;46.104;19.656;2022-09-09T18:19:20;10.30;;;5.20;;
56122;SDS011;42426;46.104;19.656;2022-09-09T18:21:50;8.70;;;4.72;;
56122;SDS011;42426;46.104;19.656;2022-09-09T18:24:18;11.07;;;4.80;;